sensor_id;sensor_type;location;lat;lon;timestamp;pressure;altitude;pressure_sealevel;temperature;humidity
30935;BME280;51033;42.648;23.292;2022-07-18T00:02:00;94569.72;;;20.41;34.10
30935;BME280;51033;42.648;23.292;2022-07-18T00:04:27;94571.34;;;20.46;35.05
30935;BME280;51033;42.648;23.292;2022-07-18T00:06:54;94588.84;;;20.75;34.64
30935;BME280;51033;42.648;23.292;2022-07-18T00:09:20;94595.06;;;20.75;33.58
30935;BME280;51033;42.648;23.292;2022-07-18T00:11:47;94562.16;;;20.50;33.31
30935;BME280;51033;42.648;23.292;2022-07-18T00:14:13;94551.19;;;20.05;33.56
30935;BME280;51033;42.648;23.292;2022-07-18T00:16:38;94568.00;;;20.14;33.61
30935;BME280;51033;42.648;23.292;2022-07-18T00:19:04;94558.47;;;20.20;33.91
30935;BME280;51033;42.648;23.292;2022-07-18T00:21:31;94535.56;;;19.95;35.06
30935;BME280;51033;42.648;23.292;2022-07-18T00:23:56;94584.78;;;20.23;34.36
30935;BME280;51033;42.648;23.292;2022-07-18T00:26:22;94585.63;;;20.27;34.55
30935;BME280;51033;42.648;23.292;2022-07-18T00:28:47;94553.00;;;20.16;34.08
30935;BME280;51033;42.648;23.292;2022-07-18T00:31:13;94556.59;;;20.05;34.54
30935;BME280;51033;42.648;23.292;2022-07-18T00:33:38;94425.00;;;19.25;33.98
30935;BME280;51033;42.648;23.292;2022-07-18T00:36:04;94580.34;;;20.15;33.40
30935;BME280;51033;42.648;23.292;2022-07-18T00:38:29;94564.91;;;20.15;33.61
30935;BME280;51033;42.648;23.292;2022-07-18T00:40:56;94570.06;;;19.86;34.21
30935;BME280;51033;42.648;23.292;2022-07-18T00:43:21;94566.81;;;19.96;33.19
30935;BME280;51033;42.648;23.292;2022-07-18T00:45:48;94582.91;;;20.08;34.30
30935;BME280;51033;42.648;23.292;2022-07-18T00:48:14;94582.31;;;19.80;35.05
30935;BME280;51033;42.648;23.292;2022-07-18T00:50:41;94578.84;;;19.63;34.87
30935;BME280;51033;42.648;23.292;2022-07-18T00:53:07;94560.72;;;19.80;33.38
30935;BME280;51033;42.648;23.292;2022-07-18T00:55:37;94574.56;;;19.97;32.99
30935;BME280;51033;42.648;23.292;2022-07-18T00:58:02;94578.78;;;20.14;32.20
30935;BME280;51033;42.648;23.292;2022-07-18T01:00:28;94575.19;;;19.91;32.48
30935;BME280;51033;42.648;23.292;2022-07-18T01:03:12;94577.41;;;20.04;31.56
30935;BME280;51033;42.648;23.292;2022-07-18T01:05:37;94584.47;;;20.09;31.87
30935;BME280;51033;42.648;23.292;2022-07-18T01:10:28;94576.03;;;19.75;31.03
30935;BME280;51033;42.648;23.292;2022-07-18T01:12:53;94570.06;;;19.86;31.60
30935;BME280;51033;42.648;23.292;2022-07-18T01:15:19;94579.69;;;19.83;30.45
30935;BME280;51033;42.648;23.292;2022-07-18T01:17:45;94594.66;;;20.00;31.46
30935;BME280;51033;42.648;23.292;2022-07-18T01:20:11;94588.50;;;19.99;31.66
30935;BME280;51033;42.648;23.292;2022-07-18T01:22:37;94582.16;;;19.92;30.63
30935;BME280;51033;42.648;23.292;2022-07-18T01:25:05;94587.72;;;19.99;29.93
30935;BME280;51033;42.648;23.292;2022-07-18T01:27:31;94582.31;;;19.80;29.43
30935;BME280;51033;42.648;23.292;2022-07-18T01:29:56;94578.13;;;19.66;29.32
30935;BME280;51033;42.648;23.292;2022-07-18T01:32:22;94564.38;;;19.71;29.98
30935;BME280;51033;42.648;23.292;2022-07-18T01:34:48;94576.13;;;19.79;29.03
30935;BME280;51033;42.648;23.292;2022-07-18T01:37:14;94577.47;;;19.69;28.97
30935;BME280;51033;42.648;23.292;2022-07-18T01:39:41;94584.56;;;19.78;28.99
30935;BME280;51033;42.648;23.292;2022-07-18T01:42:08;94564.69;;;19.51;29.12
30935;BME280;51033;42.648;23.292;2022-07-18T01:44:34;94579.28;;;19.65;29.11
30935;BME280;51033;42.648;23.292;2022-07-18T01:47:02;94574.94;;;19.61;28.80
30935;BME280;51033;42.648;23.292;2022-07-18T01:49:28;94570.44;;;19.33;28.88
30935;BME280;51033;42.648;23.292;2022-07-18T01:51:55;94557.00;;;19.37;29.06
30935;BME280;51033;42.648;23.292;2022-07-18T01:54:27;94539.91;;;19.14;29.08
30935;BME280;51033;42.648;23.292;2022-07-18T01:56:52;94551.41;;;19.11;28.97
30935;BME280;51033;42.648;23.292;2022-07-18T01:59:18;94562.00;;;19.19;29.17
30935;BME280;51033;42.648;23.292;2022-07-18T02:01:44;94551.41;;;19.11;29.27
30935;BME280;51033;42.648;23.292;2022-07-18T02:04:10;94559.84;;;19.25;30.51
30935;BME280;51033;42.648;23.292;2022-07-18T02:06:36;94527.56;;;19.13;30.91
30935;BME280;51033;42.648;23.292;2022-07-18T02:09:02;94537.34;;;19.02;31.81
30935;BME280;51033;42.648;23.292;2022-07-18T02:11:28;94548.25;;;18.77;29.47
30935;BME280;51033;42.648;23.292;2022-07-18T02:13:53;94557.50;;;18.64;29.74
30935;BME280;51033;42.648;23.292;2022-07-18T02:16:19;94524.78;;;18.62;29.34
30935;BME280;51033;42.648;23.292;2022-07-18T02:18:44;94552.56;;;18.66;29.99
30935;BME280;51033;42.648;23.292;2022-07-18T02:21:10;94554.16;;;18.67;28.93
30935;BME280;51033;42.648;23.292;2022-07-18T02:23:35;94543.88;;;18.57;29.32
30935;BME280;51033;42.648;23.292;2022-07-18T02:26:01;94575.72;;;18.83;28.77
30935;BME280;51033;42.648;23.292;2022-07-18T02:28:27;94546.88;;;18.83;28.64
30935;BME280;51033;42.648;23.292;2022-07-18T02:30:52;94562.13;;;18.64;29.15
30935;BME280;51033;42.648;23.292;2022-07-18T02:33:18;94574.88;;;18.95;29.08
30935;BME280;51033;42.648;23.292;2022-07-18T02:35:44;94573.16;;;18.86;29.63
30935;BME280;51033;42.648;23.292;2022-07-18T02:38:09;94542.53;;;18.95;28.95
30935;BME280;51033;42.648;23.292;2022-07-18T02:40:35;94582.53;;;19.24;28.94
30935;BME280;51033;42.648;23.292;2022-07-18T02:43:01;94587.59;;;19.10;28.99
30935;BME280;51033;42.648;23.292;2022-07-18T02:45:27;94591.34;;;19.21;29.54
30935;BME280;51033;42.648;23.292;2022-07-18T02:47:53;94582.53;;;19.24;29.74
30935;BME280;51033;42.648;23.292;2022-07-18T02:50:18;94592.09;;;19.06;29.69
30935;BME280;51033;42.648;23.292;2022-07-18T02:52:47;94596.19;;;19.15;29.71
30935;BME280;51033;42.648;23.292;2022-07-18T02:55:13;94606.78;;;19.08;31.24
30935;BME280;51033;42.648;23.292;2022-07-18T02:57:39;94602.44;;;19.04;30.71
30935;BME280;51033;42.648;23.292;2022-07-18T03:00:08;94584.69;;;19.03;31.20
30935;BME280;51033;42.648;23.292;2022-07-18T03:02:34;94601.47;;;19.12;31.04
30935;BME280;51033;42.648;23.292;2022-07-18T03:04:59;94555.47;;;18.89;30.50
30935;BME280;51033;42.648;23.292;2022-07-18T03:07:24;94597.25;;;19.11;30.49
30935;BME280;51033;42.648;23.292;2022-07-18T03:09:50;94569.28;;;18.87;30.84
30935;BME280;51033;42.648;23.292;2022-07-18T03:12:16;94605.94;;;19.04;31.09
30935;BME280;51033;42.648;23.292;2022-07-18T03:14:42;94577.84;;;18.89;30.82
30935;BME280;51033;42.648;23.292;2022-07-18T03:17:07;94572.94;;;18.79;31.25
30935;BME280;51033;42.648;23.292;2022-07-18T03:19:33;94581.56;;;18.85;31.32
30935;BME280;51033;42.648;23.292;2022-07-18T03:21:59;94600.44;;;19.01;30.69
30935;BME280;51033;42.648;23.292;2022-07-18T03:24:24;94604.97;;;18.97;30.25
30935;BME280;51033;42.648;23.292;2022-07-18T03:26:50;94602.13;;;18.62;30.47
30935;BME280;51033;42.648;23.292;2022-07-18T03:29:15;94569.75;;;18.46;30.55
30935;BME280;51033;42.648;23.292;2022-07-18T03:31:41;94576.78;;;18.51;30.86
30935;BME280;51033;42.648;23.292;2022-07-18T03:34:06;94609.47;;;18.77;30.96
30935;BME280;51033;42.648;23.292;2022-07-18T03:36:32;94597.59;;;18.66;30.90
30935;BME280;51033;42.648;23.292;2022-07-18T03:38:57;94575.31;;;18.53;30.66
30935;BME280;51033;42.648;23.292;2022-07-18T03:41:23;94571.06;;;18.68;30.76
30935;BME280;51033;42.648;23.292;2022-07-18T03:43:48;94597.41;;;18.86;30.78
30935;BME280;51033;42.648;23.292;2022-07-18T03:46:14;94575.13;;;18.74;30.93
30935;BME280;51033;42.648;23.292;2022-07-18T03:48:39;94607.41;;;19.02;31.72
30935;BME280;51033;42.648;23.292;2022-07-18T03:51:05;94614.00;;;18.88;30.81
30935;BME280;51033;42.648;23.292;2022-07-18T03:53:31;94532.22;;;18.53;32.61
30935;BME280;51033;42.648;23.292;2022-07-18T03:55:56;94604.09;;;19.08;32.64
30935;BME280;51033;42.648;23.292;2022-07-18T03:58:22;94584.78;;;18.91;33.06
30935;BME280;51033;42.648;23.292;2022-07-18T04:00:47;94611.59;;;19.15;32.81
30935;BME280;51033;42.648;23.292;2022-07-18T04:03:13;94599.22;;;19.14;33.87
30935;BME280;51033;42.648;23.292;2022-07-18T04:05:38;94608.53;;;19.32;33.58
30935;BME280;51033;42.648;23.292;2022-07-18T04:08:04;94608.91;;;19.30;32.90
30935;BME280;51033;42.648;23.292;2022-07-18T04:10:30;94605.94;;;19.36;32.63
30935;BME280;51033;42.648;23.292;2022-07-18T04:12:55;94590.00;;;19.46;31.79
30935;BME280;51033;42.648;23.292;2022-07-18T04:15:22;94606.69;;;19.67;33.26
30935;BME280;51033;42.648;23.292;2022-07-18T04:17:48;94578.06;;;19.63;33.00
30935;BME280;51033;42.648;23.292;2022-07-18T04:20:16;94592.31;;;19.79;33.24
30935;BME280;51033;42.648;23.292;2022-07-18T04:22:50;94607.22;;;19.57;32.13
30935;BME280;51033;42.648;23.292;2022-07-18T04:25:17;94608.91;;;19.30;31.53
30935;BME280;51033;42.648;23.292;2022-07-18T04:27:43;94614.44;;;19.69;31.81
30935;BME280;51033;42.648;23.292;2022-07-18T04:30:09;94590.06;;;19.65;31.96
30935;BME280;51033;42.648;23.292;2022-07-18T04:32:36;94616.19;;;19.96;31.79
30935;BME280;51033;42.648;23.292;2022-07-18T04:35:01;94609.06;;;20.04;31.94
30935;BME280;51033;42.648;23.292;2022-07-18T04:37:29;94586.47;;;19.77;31.35
30935;BME280;51033;42.648;23.292;2022-07-18T04:39:56;94595.72;;;19.60;31.79
30935;BME280;51033;42.648;23.292;2022-07-18T04:42:21;94606.63;;;19.99;31.90
30935;BME280;51033;42.648;23.292;2022-07-18T04:44:47;94583.78;;;19.77;30.98
30935;BME280;51033;42.648;23.292;2022-07-18T04:47:12;94579.16;;;19.78;30.11
30935;BME280;51033;42.648;23.292;2022-07-18T04:49:37;94564.38;;;19.71;30.25
30935;BME280;51033;42.648;23.292;2022-07-18T04:52:03;94584.31;;;20.02;29.85
30935;BME280;51033;42.648;23.292;2022-07-18T04:54:28;94580.34;;;20.15;30.27
30935;BME280;51033;42.648;23.292;2022-07-18T04:56:54;94589.75;;;20.40;30.55
30935;BME280;51033;42.648;23.292;2022-07-18T04:59:19;94595.03;;;20.33;30.01
30935;BME280;51033;42.648;23.292;2022-07-18T05:01:44;94588.28;;;20.43;29.62
30935;BME280;51033;42.648;23.292;2022-07-18T05:04:10;94575.97;;;19.91;29.68
30935;BME280;51033;42.648;23.292;2022-07-18T05:06:35;94562.56;;;19.95;29.67
30935;BME280;51033;42.648;23.292;2022-07-18T05:09:01;94569.63;;;19.64;29.90
30935;BME280;51033;42.648;23.292;2022-07-18T05:11:26;94573.78;;;19.78;29.93
30935;BME280;51033;42.648;23.292;2022-07-18T05:13:51;94599.72;;;20.01;29.61
30935;BME280;51033;42.648;23.292;2022-07-18T05:16:17;94588.38;;;20.11;29.04
30935;BME280;51033;42.648;23.292;2022-07-18T05:18:42;94601.41;;;20.25;28.87
30935;BME280;51033;42.648;23.292;2022-07-18T05:21:08;94600.56;;;20.40;29.35
30935;BME280;51033;42.648;23.292;2022-07-18T05:23:33;94592.78;;;20.39;28.85
30935;BME280;51033;42.648;23.292;2022-07-18T05:25:58;94559.47;;;20.31;28.76
30935;BME280;51033;42.648;23.292;2022-07-18T05:28:24;94591.16;;;20.73;29.04
30935;BME280;51033;42.648;23.292;2022-07-18T05:30:49;94584.75;;;20.62;29.76
30935;BME280;51033;42.648;23.292;2022-07-18T05:33:15;94579.75;;;20.06;28.72
30935;BME280;51033;42.648;23.292;2022-07-18T05:35:40;94600.53;;;20.59;29.55
30935;BME280;51033;42.648;23.292;2022-07-18T05:38:06;94585.34;;;20.93;30.06
30935;BME280;51033;42.648;23.292;2022-07-18T05:40:31;94598.97;;;20.58;27.05
30935;BME280;51033;42.648;23.292;2022-07-18T05:42:57;94603.94;;;20.95;28.39
30935;BME280;51033;42.648;23.292;2022-07-18T05:45:23;94563.06;;;21.00;27.99
30935;BME280;51033;42.648;23.292;2022-07-18T05:47:50;94592.28;;;20.91;27.41
30935;BME280;51033;42.648;23.292;2022-07-18T05:50:15;94609.00;;;21.19;27.56
30935;BME280;51033;42.648;23.292;2022-07-18T05:52:41;94583.31;;;21.32;28.47
30935;BME280;51033;42.648;23.292;2022-07-18T05:55:07;94579.69;;;21.48;26.57
30935;BME280;51033;42.648;23.292;2022-07-18T05:57:32;94507.25;;;21.11;27.12
30935;BME280;51033;42.648;23.292;2022-07-18T05:59:58;94578.19;;;21.76;26.81
30935;BME280;51033;42.648;23.292;2022-07-18T06:02:23;94593.81;;;21.86;25.70
30935;BME280;51033;42.648;23.292;2022-07-18T06:04:49;94612.97;;;22.01;26.00
30935;BME280;51033;42.648;23.292;2022-07-18T06:07:14;94606.41;;;22.02;26.58
30935;BME280;51033;42.648;23.292;2022-07-18T06:09:39;94609.47;;;22.00;26.82
30935;BME280;51033;42.648;23.292;2022-07-18T06:12:05;94605.00;;;22.11;25.48
30935;BME280;51033;42.648;23.292;2022-07-18T06:14:31;94597.69;;;22.15;25.64
30935;BME280;51033;42.648;23.292;2022-07-18T06:16:57;94615.34;;;22.06;26.05
30935;BME280;51033;42.648;23.292;2022-07-18T06:19:22;94618.19;;;21.60;26.77
30935;BME280;51033;42.648;23.292;2022-07-18T06:21:48;94601.88;;;21.34;27.29
30935;BME280;51033;42.648;23.292;2022-07-18T06:24:14;94606.44;;;21.75;26.01
30935;BME280;51033;42.648;23.292;2022-07-18T06:26:39;94540.50;;;21.61;25.66
30935;BME280;51033;42.648;23.292;2022-07-18T06:29:04;94612.53;;;22.25;25.91
30935;BME280;51033;42.648;23.292;2022-07-18T06:31:30;94606.94;;;22.41;25.00
30935;BME280;51033;42.648;23.292;2022-07-18T06:33:56;94607.31;;;22.09;25.32
30935;BME280;51033;42.648;23.292;2022-07-18T06:36:21;94576.34;;;22.10;25.41
30935;BME280;51033;42.648;23.292;2022-07-18T06:38:50;94579.09;;;21.84;26.07
30935;BME280;51033;42.648;23.292;2022-07-18T06:41:16;94600.22;;;22.01;26.62
30935;BME280;51033;42.648;23.292;2022-07-18T06:43:42;94602.09;;;22.23;26.25
30935;BME280;51033;42.648;23.292;2022-07-18T06:46:07;94572.16;;;22.16;26.31
30935;BME280;51033;42.648;23.292;2022-07-18T06:48:34;94594.41;;;21.73;26.27
30935;BME280;51033;42.648;23.292;2022-07-18T06:51:01;94596.91;;;21.36;26.62
30935;BME280;51033;42.648;23.292;2022-07-18T06:53:28;94592.09;;;21.26;27.24
30935;BME280;51033;42.648;23.292;2022-07-18T06:55:54;94588.78;;;21.59;27.53
30935;BME280;51033;42.648;23.292;2022-07-18T06:58:20;94577.38;;;21.23;27.25
30935;BME280;51033;42.648;23.292;2022-07-18T07:00:45;94588.63;;;21.52;28.07
30935;BME280;51033;42.648;23.292;2022-07-18T07:03:11;94582.38;;;21.48;27.09
30935;BME280;51033;42.648;23.292;2022-07-18T07:05:36;94561.16;;;21.76;27.18
30935;BME280;51033;42.648;23.292;2022-07-18T07:08:02;94557.94;;;21.67;26.52
30935;BME280;51033;42.648;23.292;2022-07-18T07:10:28;94575.28;;;22.18;27.10
30935;BME280;51033;42.648;23.292;2022-07-18T07:12:53;94558.09;;;21.77;25.71
30935;BME280;51033;42.648;23.292;2022-07-18T07:15:20;94579.53;;;22.19;26.30
30935;BME280;51033;42.648;23.292;2022-07-18T07:17:46;94573.81;;;22.24;25.71
30935;BME280;51033;42.648;23.292;2022-07-18T07:20:12;94579.59;;;21.93;26.05
30935;BME280;51033;42.648;23.292;2022-07-18T07:22:45;94574.53;;;21.92;26.04
30935;BME280;51033;42.648;23.292;2022-07-18T07:25:12;94584.75;;;22.02;26.16
30935;BME280;51033;42.648;23.292;2022-07-18T07:27:38;94569.09;;;22.48;26.73
30935;BME280;51033;42.648;23.292;2022-07-18T07:30:04;94569.31;;;22.06;25.95
30935;BME280;51033;42.648;23.292;2022-07-18T07:32:34;94575.13;;;22.04;24.52
30935;BME280;51033;42.648;23.292;2022-07-18T07:35:00;94576.00;;;21.85;24.72
30935;BME280;51033;42.648;23.292;2022-07-18T07:37:25;94566.38;;;22.18;24.64
30935;BME280;51033;42.648;23.292;2022-07-18T07:39:51;94573.88;;;21.98;24.72
30935;BME280;51033;42.648;23.292;2022-07-18T07:42:16;94577.19;;;22.14;24.26
30935;BME280;51033;42.648;23.292;2022-07-18T07:44:42;94576.91;;;21.93;24.28
30935;BME280;51033;42.648;23.292;2022-07-18T07:47:07;94553.63;;;21.36;25.53
30935;BME280;51033;42.648;23.292;2022-07-18T07:49:32;94571.16;;;21.98;24.42
30935;BME280;51033;42.648;23.292;2022-07-18T07:52:00;94580.72;;;22.18;25.20
30935;BME280;51033;42.648;23.292;2022-07-18T07:54:25;94583.22;;;22.34;24.14
30935;BME280;51033;42.648;23.292;2022-07-18T07:56:50;94543.63;;;22.22;23.71
30935;BME280;51033;42.648;23.292;2022-07-18T07:59:16;94575.69;;;22.50;23.81
30935;BME280;51033;42.648;23.292;2022-07-18T08:01:41;94570.59;;;22.45;24.43
30935;BME280;51033;42.648;23.292;2022-07-18T08:04:07;94580.78;;;22.55;24.27
30935;BME280;51033;42.648;23.292;2022-07-18T08:06:32;94566.91;;;22.60;24.18
30935;BME280;51033;42.648;23.292;2022-07-18T08:08:57;94571.13;;;22.58;24.37
30935;BME280;51033;42.648;23.292;2022-07-18T08:11:23;94579.03;;;22.73;25.13
30935;BME280;51033;42.648;23.292;2022-07-18T08:13:48;94571.38;;;22.46;25.18
30935;BME280;51033;42.648;23.292;2022-07-18T08:16:14;94551.06;;;21.99;24.67
30935;BME280;51033;42.648;23.292;2022-07-18T08:18:39;94575.53;;;22.10;24.70
30935;BME280;51033;42.648;23.292;2022-07-18T08:21:04;94580.78;;;22.22;25.12
30935;BME280;51033;42.648;23.292;2022-07-18T08:23:30;94578.69;;;22.42;24.05
30935;BME280;51033;42.648;23.292;2022-07-18T08:25:55;94551.81;;;22.29;23.85
30935;BME280;51033;42.648;23.292;2022-07-18T08:28:21;94571.47;;;22.53;24.21
30935;BME280;51033;42.648;23.292;2022-07-18T08:30:46;94578.50;;;22.57;23.31
30935;BME280;51033;42.648;23.292;2022-07-18T08:33:11;94578.53;;;22.61;23.25
30935;BME280;51033;42.648;23.292;2022-07-18T08:35:37;94569.63;;;22.64;23.49
30935;BME280;51033;42.648;23.292;2022-07-18T08:38:03;94584.13;;;22.79;23.83
30935;BME280;51033;42.648;23.292;2022-07-18T08:40:29;94575.16;;;22.71;23.69
30935;BME280;51033;42.648;23.292;2022-07-18T08:42:57;94587.88;;;22.67;24.09
30935;BME280;51033;42.648;23.292;2022-07-18T08:45:24;94558.31;;;22.55;22.87
30935;BME280;51033;42.648;23.292;2022-07-18T08:47:50;94586.41;;;22.73;22.83
30935;BME280;51033;42.648;23.292;2022-07-18T08:50:16;94570.06;;;22.33;22.53
30935;BME280;51033;42.648;23.292;2022-07-18T08:52:42;94563.25;;;22.46;23.54
30935;BME280;51033;42.648;23.292;2022-07-18T08:55:09;94574.00;;;22.72;23.26
30935;BME280;51033;42.648;23.292;2022-07-18T08:57:35;94579.81;;;22.74;22.66
30935;BME280;51033;42.648;23.292;2022-07-18T09:00:05;94568.56;;;22.72;23.52
30935;BME280;51033;42.648;23.292;2022-07-18T09:02:31;94579.94;;;22.85;24.78
30935;BME280;51033;42.648;23.292;2022-07-18T09:04:59;94571.50;;;22.93;24.22
30935;BME280;51033;42.648;23.292;2022-07-18T09:07:27;94537.44;;;22.92;23.68
30935;BME280;51033;42.648;23.292;2022-07-18T09:10:00;94574.75;;;23.06;24.16
30935;BME280;51033;42.648;23.292;2022-07-18T09:12:27;94577.13;;;23.11;24.23
30935;BME280;51033;42.648;23.292;2022-07-18T09:14:54;94565.28;;;22.89;23.76
30935;BME280;51033;42.648;23.292;2022-07-18T09:17:28;94582.09;;;23.05;23.33
30935;BME280;51033;42.648;23.292;2022-07-18T09:20:01;94577.91;;;22.78;25.72
30935;BME280;51033;42.648;23.292;2022-07-18T09:22:30;94568.91;;;22.67;24.37
30935;BME280;51033;42.648;23.292;2022-07-18T09:25:06;94583.13;;;22.94;24.56
30935;BME280;51033;42.648;23.292;2022-07-18T09:27:43;94586.75;;;23.05;24.44
30935;BME280;51033;42.648;23.292;2022-07-18T09:30:25;94561.00;;;22.88;24.92
30935;BME280;51033;42.648;23.292;2022-07-18T09:35:51;94578.25;;;23.10;24.72
30935;BME280;51033;42.648;23.292;2022-07-18T09:38:19;94559.38;;;22.84;25.73
30935;BME280;51033;42.648;23.292;2022-07-18T09:40:53;94571.09;;;22.88;25.61
30935;BME280;51033;42.648;23.292;2022-07-18T09:43:21;94568.94;;;23.07;25.40
30935;BME280;51033;42.648;23.292;2022-07-18T09:45:52;94570.59;;;23.19;25.42
30935;BME280;51033;42.648;23.292;2022-07-18T09:48:26;94548.78;;;23.08;24.68
30935;BME280;51033;42.648;23.292;2022-07-18T09:53:24;94570.66;;;23.26;24.17
30935;BME280;51033;42.648;23.292;2022-07-18T09:55:56;94565.19;;;23.23;24.13
30935;BME280;51033;42.648;23.292;2022-07-18T09:58:26;94568.31;;;23.25;26.71
30935;BME280;51033;42.648;23.292;2022-07-18T10:00:53;94570.59;;;23.23;25.36
30935;BME280;51033;42.648;23.292;2022-07-18T10:03:20;94556.59;;;23.13;25.47
30935;BME280;51033;42.648;23.292;2022-07-18T10:05:48;94546.06;;;22.68;26.28
30935;BME280;51033;42.648;23.292;2022-07-18T10:08:16;94561.22;;;23.13;25.33
30935;BME280;51033;42.648;23.292;2022-07-18T10:10:44;94564.50;;;23.33;26.20
30935;BME280;51033;42.648;23.292;2022-07-18T10:13:10;94557.53;;;23.32;26.30
30935;BME280;51033;42.648;23.292;2022-07-18T10:15:38;94506.94;;;23.06;26.23
30935;BME280;51033;42.648;23.292;2022-07-18T10:18:08;94548.16;;;23.26;26.68
30935;BME280;51033;42.648;23.292;2022-07-18T10:23:07;94545.53;;;23.36;26.85
30935;BME280;51033;42.648;23.292;2022-07-18T10:25:34;94524.13;;;23.28;26.95
30935;BME280;51033;42.648;23.292;2022-07-18T10:28:11;94538.69;;;23.53;26.58
30935;BME280;51033;42.648;23.292;2022-07-18T10:30:41;94546.13;;;23.63;26.33
30935;BME280;51033;42.648;23.292;2022-07-18T10:33:36;94536.09;;;23.71;26.48
30935;BME280;51033;42.648;23.292;2022-07-18T10:36:04;94540.84;;;23.84;27.31
30935;BME280;51033;42.648;23.292;2022-07-18T10:38:30;94533.84;;;23.87;26.84
30935;BME280;51033;42.648;23.292;2022-07-18T10:41:09;94533.88;;;23.90;26.29
30935;BME280;51033;42.648;23.292;2022-07-18T10:43:40;94512.53;;;23.85;26.34
30935;BME280;51033;42.648;23.292;2022-07-18T10:46:07;94527.69;;;23.97;26.21
30935;BME280;51033;42.648;23.292;2022-07-18T10:51:08;94531.03;;;23.69;27.48
30935;BME280;51033;42.648;23.292;2022-07-18T10:56:18;94518.31;;;23.84;28.04
30935;BME280;51033;42.648;23.292;2022-07-18T10:58:44;94521.81;;;23.84;27.18
30935;BME280;51033;42.648;23.292;2022-07-18T11:01:15;94528.47;;;23.97;27.81
30935;BME280;51033;42.648;23.292;2022-07-18T11:03:41;94500.53;;;23.93;26.47
30935;BME280;51033;42.648;23.292;2022-07-18T11:06:07;94521.13;;;24.01;26.13
30935;BME280;51033;42.648;23.292;2022-07-18T11:08:33;94517.28;;;24.10;30.16
30935;BME280;51033;42.648;23.292;2022-07-18T11:16:11;94499.13;;;24.35;24.88
30935;BME280;51033;42.648;23.292;2022-07-18T11:21:24;94507.94;;;24.11;26.35
30935;BME280;51033;42.648;23.292;2022-07-18T11:23:51;94485.00;;;24.01;27.60
30935;BME280;51033;42.648;23.292;2022-07-18T11:26:22;94499.75;;;23.96;26.82
30935;BME280;51033;42.648;23.292;2022-07-18T11:28:56;94475.59;;;23.77;34.13
30935;BME280;51033;42.648;23.292;2022-07-18T11:31:21;94511.00;;;23.95;29.60
30935;BME280;51033;42.648;23.292;2022-07-18T11:33:48;94500.66;;;24.18;27.22
30935;BME280;51033;42.648;23.292;2022-07-18T11:36:16;94495.25;;;24.29;29.25
30935;BME280;51033;42.648;23.292;2022-07-18T11:38:52;94498.72;;;24.26;29.33
30935;BME280;51033;42.648;23.292;2022-07-18T11:41:20;94481.28;;;24.44;25.90
30935;BME280;51033;42.648;23.292;2022-07-18T11:43:46;94488.72;;;24.65;28.20
30935;BME280;51033;42.648;23.292;2022-07-18T11:46:13;94488.00;;;24.72;26.94
30935;BME280;51033;42.648;23.292;2022-07-18T11:48:40;94468.16;;;24.68;25.36
30935;BME280;51033;42.648;23.292;2022-07-18T11:51:13;94492.66;;;24.71;24.91
30935;BME280;51033;42.648;23.292;2022-07-18T11:53:50;94481.31;;;24.52;24.40
30935;BME280;51033;42.648;23.292;2022-07-18T11:56:16;94470.44;;;24.48;26.98
30935;BME280;51033;42.648;23.292;2022-07-18T11:58:43;94468.81;;;24.26;27.03
30935;BME280;51033;42.648;23.292;2022-07-18T12:01:10;94452.50;;;24.19;26.17
30935;BME280;51033;42.648;23.292;2022-07-18T12:03:37;94442.41;;;24.30;26.89
30935;BME280;51033;42.648;23.292;2022-07-18T12:06:12;94476.25;;;24.50;26.41
30935;BME280;51033;42.648;23.292;2022-07-18T12:08:43;94477.84;;;24.65;25.15
30935;BME280;51033;42.648;23.292;2022-07-18T12:13:57;94468.88;;;24.54;26.13
30935;BME280;51033;42.648;23.292;2022-07-18T12:16:36;94471.19;;;24.45;25.86
30935;BME280;51033;42.648;23.292;2022-07-18T12:19:10;94468.91;;;24.61;27.59
30935;BME280;51033;42.648;23.292;2022-07-18T12:26:48;94465.84;;;24.80;24.78
30935;BME280;51033;42.648;23.292;2022-07-18T12:29:21;94468.94;;;25.00;23.44
30935;BME280;51033;42.648;23.292;2022-07-18T12:31:47;94459.19;;;24.53;24.59
30935;BME280;51033;42.648;23.292;2022-07-18T12:34:14;94452.59;;;24.58;24.73
30935;BME280;51033;42.648;23.292;2022-07-18T12:36:57;94413.75;;;24.54;26.52
30935;BME280;51033;42.648;23.292;2022-07-18T12:39:31;94451.88;;;24.93;26.03
30935;BME280;51033;42.648;23.292;2022-07-18T12:41:58;94441.75;;;24.97;24.89
30935;BME280;51033;42.648;23.292;2022-07-18T12:44:25;94447.97;;;25.11;25.54
30935;BME280;51033;42.648;23.292;2022-07-18T12:46:51;94462.75;;;25.17;27.41
30935;BME280;51033;42.648;23.292;2022-07-18T12:49:17;94451.06;;;25.20;24.71
30935;BME280;51033;42.648;23.292;2022-07-18T12:51:42;94425.00;;;25.09;24.60
30935;BME280;51033;42.648;23.292;2022-07-18T12:54:07;94452.22;;;24.84;27.05
30935;BME280;51033;42.648;23.292;2022-07-18T12:56:34;94442.09;;;24.63;28.45
30935;BME280;51033;42.648;23.292;2022-07-18T12:58:59;94437.84;;;24.83;28.20
30935;BME280;51033;42.648;23.292;2022-07-18T13:01:25;94426.59;;;24.81;28.50
30935;BME280;51033;42.648;23.292;2022-07-18T13:03:50;94418.44;;;24.81;28.22
30935;BME280;51033;42.648;23.292;2022-07-18T13:06:16;94431.59;;;24.69;28.97
30935;BME280;51033;42.648;23.292;2022-07-18T13:08:41;94437.84;;;24.83;28.77
30935;BME280;51033;42.648;23.292;2022-07-18T13:11:06;94439.78;;;25.15;28.19
30935;BME280;51033;42.648;23.292;2022-07-18T13:13:32;94411.78;;;25.18;27.23
30935;BME280;51033;42.648;23.292;2022-07-18T13:15:57;94414.47;;;25.28;26.77
30935;BME280;51033;42.648;23.292;2022-07-18T13:18:23;94435.50;;;25.46;27.18
30935;BME280;51033;42.648;23.292;2022-07-18T13:20:48;94410.56;;;25.51;28.97